Time;durP1;ratioP1;P1;durP2;ratioP2;P2;SDS_P1;SDS_P2;PMS_P1;PMS_P2;Temp;Humidity;BMP_temperature;BMP_pressure;BME280_temperature;BME280_humidity;BME280_pressure;Samples;Min_cycle;Max_cycle;Signal;HPM_P1;HPM_P2
2023/12/05 00:02:04;;;;;;;11.30;10.90;;;9.00;99.90;;;;;;5070061;28;20210;-66
2023/12/05 00:04:31;;;;;;;10.63;10.23;;;9.00;99.90;;;;;;5071355;28;20199;-66
2023/12/05 00:07:14;;;;;;;10.73;10.33;;;9.00;99.90;;;;;;5071079;28;20639;-68
2023/12/05 00:09:41;;;;;;;10.40;10.10;;;9.00;99.90;;;;;;5068026;28;20199;-68
2023/12/05 00:12:09;;;;;;;10.20;9.90;;;9.00;99.90;;;;;;5072263;28;20219;-67
2023/12/05 00:14:36;;;;;;;10.43;10.13;;;9.10;99.90;;;;;;5074252;28;20207;-68
2023/12/05 00:17:02;;;;;;;11.03;10.63;;;9.10;99.90;;;;;;5071445;28;20676;-67
2023/12/05 00:19:29;;;;;;;10.43;10.13;;;9.10;99.90;;;;;;5073319;28;20215;-67
2023/12/05 00:21:56;;;;;;;10.37;10.07;;;9.10;99.90;;;;;;5072393;28;20206;-68
2023/12/05 00:24:24;;;;;;;10.93;10.53;;;9.20;99.90;;;;;;5072329;28;20573;-68
2023/12/05 00:26:51;;;;;;;11.10;10.70;;;9.10;99.90;;;;;;5072932;28;20215;-68
2023/12/05 00:29:18;;;;;;;11.33;10.93;;;9.20;99.90;;;;;;5072216;28;20196;-69
2023/12/05 00:31:44;;;;;;;10.87;10.47;;;9.20;99.90;;;;;;5073650;28;20295;-69
2023/12/05 00:34:11;;;;;;;11.07;10.67;;;9.20;99.90;;;;;;5072870;28;20199;-68
2023/12/05 00:36:38;;;;;;;11.20;10.80;;;9.10;99.90;;;;;;5076695;28;20219;-67
2023/12/05 00:39:05;;;;;;;11.13;10.73;;;9.10;99.90;;;;;;5075757;28;20239;-67
2023/12/05 00:41:33;;;;;;;11.10;10.70;;;9.10;99.90;;;;;;5076854;28;20207;-68
2023/12/05 00:44:00;;;;;;;11.17;10.77;;;9.10;99.90;;;;;;5075434;28;20211;-68
2023/12/05 00:46:27;;;;;;;10.90;10.50;;;9.20;99.90;;;;;;5076275;28;20219;-67
2023/12/05 00:48:54;;;;;;;11.27;10.87;;;9.20;99.90;;;;;;5076085;28;20237;-67
2023/12/05 00:51:21;;;;;;;11.13;10.73;;;9.20;99.90;;;;;;5076590;28;20215;-67
2023/12/05 00:53:48;;;;;;;11.10;10.70;;;9.20;99.90;;;;;;5076468;28;20219;-67
2023/12/05 00:56:15;;;;;;;11.10;10.70;;;9.20;99.90;;;;;;5077091;28;20768;-67
2023/12/05 00:58:43;;;;;;;10.90;10.50;;;9.20;99.90;;;;;;5076508;28;20709;-67
2023/12/05 01:01:10;;;;;;;11.40;11.00;;;9.20;99.90;;;;;;5078386;28;20211;-68
2023/12/05 01:03:36;;;;;;;11.37;10.97;;;9.30;99.90;;;;;;5077852;28;20217;-67
2023/12/05 01:06:04;;;;;;;11.73;11.33;;;9.30;99.90;;;;;;5076117;28;20231;-67
2023/12/05 01:08:30;;;;;;;11.97;11.57;;;9.30;99.90;;;;;;5074346;28;20241;-67
2023/12/05 01:10:57;;;;;;;11.03;10.63;;;9.20;99.90;;;;;;5074707;28;20213;-67
2023/12/05 01:13:24;;;;;;;11.90;11.50;;;9.20;99.90;;;;;;5086511;28;20210;-66
2023/12/05 01:15:52;;;;;;;10.83;10.43;;;9.20;99.90;;;;;;5086930;28;20235;-67
2023/12/05 01:18:19;;;;;;;11.27;10.87;;;9.20;99.90;;;;;;5079130;28;20486;-68
2023/12/05 01:20:46;;;;;;;11.63;11.23;;;9.20;99.90;;;;;;5080157;28;20207;-67
2023/12/05 01:23:12;;;;;;;11.03;10.63;;;9.10;99.90;;;;;;5079545;28;20218;-67
2023/12/05 01:25:39;;;;;;;11.20;10.80;;;9.10;99.90;;;;;;5078587;28;20234;-67
2023/12/05 01:28:06;;;;;;;11.70;11.30;;;9.10;99.90;;;;;;5075687;28;20214;-66
2023/12/05 01:30:32;;;;;;;11.73;11.33;;;9.10;99.90;;;;;;5074700;28;20290;-66
2023/12/05 01:33:01;;;;;;;11.37;10.97;;;9.10;99.90;;;;;;5073671;28;20230;-68
2023/12/05 01:35:27;;;;;;;10.90;10.50;;;9.10;99.90;;;;;;5073990;28;20318;-66
2023/12/05 01:37:54;;;;;;;11.53;11.13;;;9.10;99.90;;;;;;5075856;28;20219;-68
2023/12/05 01:40:21;;;;;;;11.10;10.70;;;9.10;99.90;;;;;;5078535;28;20199;-67
2023/12/05 01:42:47;;;;;;;11.65;11.25;;;9.00;99.90;;;;;;5077237;28;20655;-67
2023/12/05 01:45:14;;;;;;;11.40;11.00;;;8.90;99.90;;;;;;5071152;28;20246;-66
2023/12/05 01:47:42;;;;;;;11.23;10.83;;;8.90;99.90;;;;;;5072824;28;20208;-66
2023/12/05 01:50:22;;;;;;;11.17;10.77;;;8.90;99.90;;;;;;5070963;28;20223;-67
2023/12/05 01:52:52;;;;;;;10.87;10.47;;;9.00;99.90;;;;;;5073933;28;20214;-68
2023/12/05 01:55:20;;;;;;;10.90;10.50;;;8.90;99.90;;;;;;5073140;28;20226;-67
2023/12/05 01:57:48;;;;;;;11.20;10.80;;;8.90;99.90;;;;;;5073134;28;20242;-68
2023/12/05 02:00:16;;;;;;;11.10;10.70;;;8.90;99.90;;;;;;5070343;28;20557;-67
2023/12/05 02:02:43;;;;;;;10.73;10.33;;;8.90;99.90;;;;;;5072989;28;20218;-68
2023/12/05 02:05:13;;;;;;;10.57;10.27;;;8.80;99.90;;;;;;5072255;28;20223;-67
2023/12/05 02:07:40;;;;;;;10.50;10.13;;;8.80;99.90;;;;;;5072671;28;20738;-68
2023/12/05 02:10:10;;;;;;;11.03;10.63;;;8.70;99.90;;;;;;5072369;28;20215;-67
2023/12/05 02:12:37;;;;;;;10.83;10.43;;;8.80;99.90;;;;;;5072283;28;20665;-67
2023/12/05 02:15:05;;;;;;;10.43;10.10;;;8.80;99.90;;;;;;5072481;28;20203;-67
2023/12/05 02:17:40;;;;;;;10.73;10.33;;;8.80;99.90;;;;;;5072359;28;20233;-68
2023/12/05 02:20:15;;;;;;;10.63;10.23;;;8.90;99.90;;;;;;5072044;28;20205;-67
2023/12/05 02:23:12;;;;;;;11.17;10.77;;;8.80;99.90;;;;;;5071069;28;20213;-67
2023/12/05 02:25:54;;;;;;;11.03;10.63;;;8.80;99.90;;;;;;5069438;28;20231;-67
2023/12/05 02:28:24;;;;;;;11.07;10.67;;;8.80;99.90;;;;;;5070803;28;20558;-67
2023/12/05 02:30:50;;;;;;;11.33;10.93;;;8.80;99.90;;;;;;5072928;28;20337;-68
2023/12/05 02:33:17;;;;;;;11.03;10.63;;;8.80;99.90;;;;;;5073185;28;20211;-69
2023/12/05 02:35:44;;;;;;;11.03;10.63;;;8.70;99.90;;;;;;5073553;28;20549;-68
2023/12/05 02:38:22;;;;;;;10.53;10.13;;;8.60;99.90;;;;;;5075010;28;20698;-68
2023/12/05 02:40:57;;;;;;;11.20;10.80;;;8.60;99.90;;;;;;5075297;28;20254;-69
2023/12/05 02:43:28;;;;;;;10.73;10.33;;;8.60;99.90;;;;;;5075274;28;20217;-67
2023/12/05 02:45:56;;;;;;;11.00;10.60;;;8.60;99.90;;;;;;5085109;28;20211;-68
2023/12/05 02:48:24;;;;;;;11.33;10.93;;;8.50;99.90;;;;;;5086342;28;20577;-68
2023/12/05 02:50:53;;;;;;;10.63;10.23;;;8.50;99.90;;;;;;5077638;28;20203;-68
2023/12/05 02:53:20;;;;;;;10.93;10.53;;;8.50;99.90;;;;;;5080273;28;20215;-69
2023/12/05 02:55:48;;;;;;;10.77;10.37;;;8.50;99.90;;;;;;5072465;28;20227;-68
2023/12/05 02:58:14;;;;;;;10.50;10.20;;;8.50;99.90;;;;;;5073971;28;20658;-69
2023/12/05 03:00:43;;;;;;;10.60;10.23;;;8.50;99.90;;;;;;5073988;28;20203;-68
2023/12/05 03:03:10;;;;;;;10.27;9.97;;;8.50;99.90;;;;;;5071814;28;20590;-70
2023/12/05 03:05:36;;;;;;;10.40;10.10;;;8.50;99.90;;;;;;5068986;28;20341;-68
2023/12/05 03:08:03;;;;;;;10.27;9.97;;;8.50;99.90;;;;;;5064255;28;20706;-70
2023/12/05 03:10:30;;;;;;;10.53;10.13;;;8.50;99.90;;;;;;5071685;28;20294;-68
2023/12/05 03:12:57;;;;;;;10.53;10.20;;;8.50;99.90;;;;;;5072966;28;20207;-69
2023/12/05 03:15:23;;;;;;;10.10;9.80;;;8.60;99.90;;;;;;5071346;28;20737;-69
2023/12/05 03:17:51;;;;;;;10.50;10.20;;;8.60;99.90;;;;;;5071184;28;20322;-68
2023/12/05 03:20:18;;;;;;;11.27;10.87;;;8.60;99.90;;;;;;5070793;28;20231;-68
2023/12/05 03:22:45;;;;;;;10.63;10.23;;;8.60;99.90;;;;;;5071119;28;20211;-70
2023/12/05 03:25:12;;;;;;;10.90;10.50;;;8.70;99.90;;;;;;5062318;28;20233;-70
2023/12/05 03:27:39;;;;;;;10.80;10.40;;;8.70;99.90;;;;;;5071041;28;20199;-69
2023/12/05 03:30:07;;;;;;;10.53;10.13;;;8.70;99.90;;;;;;5070881;28;20218;-67
2023/12/05 03:32:34;;;;;;;10.73;10.40;;;8.70;99.90;;;;;;5071307;28;20685;-68
2023/12/05 03:35:02;;;;;;;11.23;10.83;;;8.80;99.90;;;;;;5071145;28;20214;-68
2023/12/05 03:37:28;;;;;;;10.70;10.30;;;8.70;99.90;;;;;;5071134;28;20623;-68
2023/12/05 03:39:55;;;;;;;11.50;11.10;;;8.80;99.90;;;;;;5070763;28;20215;-70
2023/12/05 03:42:22;;;;;;;10.70;10.30;;;8.80;99.90;;;;;;5071252;28;20607;-66
2023/12/05 03:44:49;;;;;;;10.90;10.50;;;8.80;99.90;;;;;;5071045;28;20220;-68
2023/12/05 03:47:15;;;;;;;10.77;10.37;;;8.80;99.90;;;;;;5063250;28;20207;-69
2023/12/05 03:49:42;;;;;;;10.80;10.40;;;8.80;99.90;;;;;;5071674;28;20213;-69
2023/12/05 03:52:10;;;;;;;10.67;10.27;;;8.80;99.90;;;;;;5070786;28;20237;-69
2023/12/05 03:54:37;;;;;;;11.03;10.63;;;8.90;99.90;;;;;;5071111;28;20221;-68
2023/12/05 03:57:04;;;;;;;10.70;10.33;;;8.90;99.90;;;;;;5071143;28;20223;-70
2023/12/05 03:59:30;;;;;;;11.23;10.83;;;8.90;99.90;;;;;;5071068;28;20223;-69
2023/12/05 04:01:57;;;;;;;11.50;11.10;;;8.80;99.90;;;;;;5071078;28;20218;-68
2023/12/05 04:04:24;;;;;;;10.90;10.50;;;8.80;99.90;;;;;;5071320;28;20218;-69
2023/12/05 04:06:51;;;;;;;11.03;10.63;;;8.80;99.90;;;;;;5071225;28;20605;-66
2023/12/05 04:09:18;;;;;;;10.73;10.33;;;8.80;99.90;;;;;;5064799;28;20673;-67
2023/12/05 04:11:45;;;;;;;11.03;10.63;;;8.80;99.90;;;;;;5075725;28;20290;-69
2023/12/05 04:14:11;;;;;;;11.23;10.83;;;8.80;99.90;;;;;;5075607;28;20211;-68
2023/12/05 04:16:38;;;;;;;11.40;11.00;;;8.90;99.90;;;;;;5075503;28;20231;-69
2023/12/05 04:19:06;;;;;;;11.10;10.70;;;8.90;99.90;;;;;;5085680;28;20341;-68
2023/12/05 04:21:32;;;;;;;11.60;11.10;;;8.90;99.90;;;;;;5075770;28;20211;-70
2023/12/05 04:24:00;;;;;;;11.30;10.90;;;8.90;99.90;;;;;;5075338;28;20207;-69
2023/12/05 04:26:28;;;;;;;10.83;10.43;;;8.90;99.90;;;;;;5075044;28;20250;-69
2023/12/05 04:28:55;;;;;;;11.37;10.97;;;8.90;99.90;;;;;;5073672;28;20211;-68
2023/12/05 04:31:24;;;;;;;11.00;10.60;;;8.90;99.90;;;;;;5068717;28;20199;-68
2023/12/05 04:33:51;;;;;;;11.37;10.97;;;8.90;99.90;;;;;;5071665;28;20219;-69
2023/12/05 04:36:18;;;;;;;11.37;10.97;;;8.90;99.90;;;;;;5074901;28;20231;-69
2023/12/05 04:38:44;;;;;;;11.47;11.07;;;8.90;99.90;;;;;;5074979;28;20245;-69
2023/12/05 04:41:11;;;;;;;11.43;11.03;;;8.90;99.90;;;;;;5074980;28;20207;-69
2023/12/05 04:43:39;;;;;;;11.07;10.67;;;8.90;99.90;;;;;;5075284;28;20203;-68
2023/12/05 04:46:06;;;;;;;10.83;10.43;;;8.80;99.90;;;;;;5076375;28;20227;-70
2023/12/05 04:48:33;;;;;;;11.63;11.23;;;8.80;99.90;;;;;;5076139;28;20215;-69
2023/12/05 04:51:00;;;;;;;11.40;11.00;;;8.80;99.90;;;;;;5074560;28;20581;-66
2023/12/05 04:53:26;;;;;;;11.30;10.90;;;8.80;99.90;;;;;;5074360;28;20225;-70
2023/12/05 04:55:53;;;;;;;11.13;10.73;;;8.70;99.90;;;;;;5074338;28;20606;-68
2023/12/05 04:58:20;;;;;;;10.73;10.37;;;8.70;99.90;;;;;;5074309;28;20222;-68
2023/12/05 05:00:48;;;;;;;10.23;9.87;;;8.70;99.90;;;;;;5074681;28;20658;-68
2023/12/05 05:03:16;;;;;;;10.17;9.83;;;8.70;99.90;;;;;;5066006;28;20214;-70
2023/12/05 05:05:42;;;;;;;11.07;10.67;;;8.60;99.90;;;;;;5075498;28;20229;-69
2023/12/05 05:08:09;;;;;;;11.17;10.77;;;8.60;99.90;;;;;;5074264;28;20238;-68
2023/12/05 05:10:36;;;;;;;11.00;10.60;;;8.60;99.90;;;;;;5073648;28;20207;-68
2023/12/05 05:13:02;;;;;;;11.70;11.30;;;8.50;99.90;;;;;;5073549;28;20234;-70
2023/12/05 05:15:29;;;;;;;10.80;10.40;;;8.60;99.90;;;;;;5074789;28;20235;-70
2023/12/05 05:17:57;;;;;;;10.80;10.40;;;8.60;99.90;;;;;;5073661;28;20212;-67
2023/12/05 05:20:24;;;;;;;11.03;10.63;;;8.60;99.90;;;;;;5072923;28;20666;-68
2023/12/05 05:22:51;;;;;;;10.53;10.13;;;8.60;99.90;;;;;;5074048;28;20222;-68
2023/12/05 05:25:18;;;;;;;10.30;10.00;;;8.60;99.90;;;;;;5074029;28;20776;-68
2023/12/05 05:27:45;;;;;;;11.33;10.83;;;8.60;99.90;;;;;;5073984;28;20207;-70
2023/12/05 05:30:13;;;;;;;10.63;10.23;;;8.70;99.90;;;;;;5073881;28;20199;-69
2023/12/05 05:32:39;;;;;;;10.83;10.43;;;8.70;99.90;;;;;;5074535;28;20211;-69
2023/12/05 05:35:08;;;;;;;11.23;10.83;;;8.70;99.90;;;;;;5073892;28;20322;-67
2023/12/05 05:37:35;;;;;;;11.10;10.70;;;8.70;99.90;;;;;;5073657;28;20771;-69
2023/12/05 05:40:02;;;;;;;12.10;11.60;;;8.60;99.90;;;;;;5073841;28;20227;-70
2023/12/05 05:42:29;;;;;;;10.87;10.47;;;8.60;99.90;;;;;;5073351;28;20211;-69
2023/12/05 05:44:55;;;;;;;11.30;10.90;;;8.50;99.90;;;;;;5073598;28;20207;-69
2023/12/05 05:47:22;;;;;;;11.07;10.67;;;8.50;99.90;;;;;;5073620;28;20207;-68
2023/12/05 05:49:49;;;;;;;10.80;10.40;;;8.40;99.90;;;;;;5073114;28;20203;-69
2023/12/05 05:52:17;;;;;;;10.70;10.30;;;8.40;99.90;;;;;;5073581;28;20214;-68
2023/12/05 05:54:44;;;;;;;10.60;10.20;;;8.40;99.90;;;;;;5074985;28;20298;-68
2023/12/05 05:57:11;;;;;;;10.97;10.57;;;8.40;99.90;;;;;;5076314;28;20616;-67
2023/12/05 05:59:38;;;;;;;10.80;10.40;;;8.40;99.90;;;;;;5076974;28;20318;-70
2023/12/05 06:02:04;;;;;;;10.87;10.47;;;8.30;99.90;;;;;;5077940;28;20268;-68
2023/12/05 06:04:31;;;;;;;11.10;10.70;;;8.30;99.90;;;;;;5073744;28;20211;-67
2023/12/05 06:06:58;;;;;;;10.93;10.53;;;8.30;99.90;;;;;;5074792;28;20231;-68
2023/12/05 06:09:26;;;;;;;10.50;10.10;;;8.30;99.90;;;;;;5073466;28;20207;-69
2023/12/05 06:11:53;;;;;;;10.50;10.10;;;8.30;99.90;;;;;;5073199;28;20208;-69
2023/12/05 06:14:19;;;;;;;10.40;10.10;;;8.30;99.90;;;;;;5074016;28;20208;-70
2023/12/05 06:16:46;;;;;;;10.17;9.87;;;8.30;99.90;;;;;;5089642;28;20231;-68
2023/12/05 06:19:13;;;;;;;10.63;10.23;;;8.30;99.90;;;;;;5080057;28;20293;-68
2023/12/05 06:21:39;;;;;;;10.90;10.50;;;8.20;99.90;;;;;;5073408;28;20215;-67
2023/12/05 06:24:08;;;;;;;10.27;9.97;;;8.20;99.90;;;;;;5073137;28;20214;-69
2023/12/05 06:26:36;;;;;;;11.20;10.80;;;8.20;99.90;;;;;;5073183;28;20227;-68
2023/12/05 06:29:05;;;;;;;10.80;10.40;;;8.20;99.90;;;;;;5074111;28;20215;-70
2023/12/05 06:31:32;;;;;;;11.07;10.67;;;8.30;99.90;;;;;;5075275;28;20215;-69
2023/12/05 06:33:59;;;;;;;10.90;10.50;;;8.20;99.90;;;;;;5072658;28;20305;-68
2023/12/05 06:36:26;;;;;;;11.03;10.63;;;8.20;99.90;;;;;;5074313;28;20227;-70
2023/12/05 06:38:53;;;;;;;11.73;11.33;;;8.30;99.90;;;;;;5076664;28;20698;-70
2023/12/05 06:41:19;;;;;;;10.83;10.43;;;8.20;99.90;;;;;;5075233;28;20207;-70
2023/12/05 06:43:47;;;;;;;10.90;10.50;;;8.20;99.90;;;;;;5074763;28;20210;-71
2023/12/05 06:46:14;;;;;;;11.00;10.60;;;8.20;99.90;;;;;;5068466;28;20215;-68
2023/12/05 06:48:42;;;;;;;10.97;10.57;;;8.20;99.90;;;;;;5075230;28;20198;-69
2023/12/05 06:51:08;;;;;;;10.80;10.40;;;8.20;99.90;;;;;;5074741;28;20200;-69
2023/12/05 06:53:35;;;;;;;11.10;10.70;;;8.20;99.90;;;;;;5074142;28;20286;-70
2023/12/05 06:56:02;;;;;;;10.73;10.33;;;8.10;99.90;;;;;;5073572;28;20729;-69
2023/12/05 06:58:28;;;;;;;11.00;10.60;;;8.10;99.90;;;;;;5074070;28;20218;-68
2023/12/05 07:00:58;;;;;;;11.47;11.07;;;8.20;99.90;;;;;;5074152;28;20218;-68
2023/12/05 07:03:25;;;;;;;10.90;10.50;;;8.20;99.90;;;;;;5072704;28;20693;-68
2023/12/05 07:05:52;;;;;;;11.57;11.07;;;8.30;99.90;;;;;;5072738;28;20733;-70
2023/12/05 07:08:19;;;;;;;10.73;10.33;;;8.30;99.90;;;;;;5072600;28;20203;-68
2023/12/05 07:10:46;;;;;;;11.33;10.93;;;8.30;99.90;;;;;;5072901;28;20214;-69
2023/12/05 07:13:12;;;;;;;11.40;11.00;;;8.40;99.90;;;;;;5072142;28;20204;-68
2023/12/05 07:15:39;;;;;;;11.17;10.77;;;8.40;99.90;;;;;;5071512;28;20313;-69
2023/12/05 07:18:07;;;;;;;11.63;11.23;;;8.40;99.90;;;;;;5071869;28;20217;-70
2023/12/05 07:20:34;;;;;;;10.90;10.50;;;8.50;99.90;;;;;;5076407;28;20239;-68
2023/12/05 07:23:00;;;;;;;11.60;11.13;;;8.50;99.90;;;;;;5079562;28;20215;-68
2023/12/05 07:25:27;;;;;;;10.80;10.40;;;8.60;99.90;;;;;;5081262;28;20264;-70
2023/12/05 07:27:54;;;;;;;10.97;10.57;;;8.60;99.90;;;;;;5079541;28;20716;-68
2023/12/05 07:30:21;;;;;;;11.00;10.60;;;8.60;99.90;;;;;;5077111;28;20208;-69
2023/12/05 07:32:47;;;;;;;10.60;10.20;;;8.60;99.90;;;;;;5078266;28;20214;-69
2023/12/05 07:35:15;;;;;;;11.00;10.60;;;8.60;99.90;;;;;;5076800;28;20251;-69
2023/12/05 07:37:42;;;;;;;10.90;10.50;;;8.60;99.90;;;;;;5074461;28;20218;-70
2023/12/05 07:40:10;;;;;;;11.03;10.63;;;8.60;99.90;;;;;;5073155;28;20241;-68
2023/12/05 07:42:36;;;;;;;11.10;10.70;;;8.60;99.90;;;;;;5073479;28;20206;-69
2023/12/05 07:45:05;;;;;;;11.40;11.00;;;8.60;99.90;;;;;;5071773;28;20207;-69
2023/12/05 07:47:31;;;;;;;11.60;11.20;;;8.60;99.90;;;;;;5071516;28;20666;-70
2023/12/05 07:49:58;;;;;;;11.37;10.97;;;8.60;99.90;;;;;;5071853;28;20205;-68
2023/12/05 07:52:26;;;;;;;11.20;10.77;;;8.60;99.90;;;;;;5071345;28;20223;-71
2023/12/05 07:54:55;;;;;;;11.40;11.00;;;8.60;99.90;;;;;;5071683;28;20252;-71
2023/12/05 07:57:22;;;;;;;11.30;10.90;;;8.50;99.90;;;;;;5071684;28;20613;-69
2023/12/05 07:59:49;;;;;;;11.07;10.67;;;8.50;99.90;;;;;;5071248;28;20269;-67
2023/12/05 08:02:16;;;;;;;11.63;11.23;;;8.60;99.90;;;;;;5071190;28;20579;-69
2023/12/05 08:04:43;;;;;;;11.10;10.70;;;8.50;99.90;;;;;;5071431;28;20213;-68
2023/12/05 08:07:10;;;;;;;11.00;10.60;;;8.50;99.90;;;;;;5071460;28;20235;-70
2023/12/05 08:09:38;;;;;;;11.13;10.73;;;8.50;99.90;;;;;;5071749;28;20214;-69
2023/12/05 08:12:05;;;;;;;11.97;11.47;;;8.50;99.90;;;;;;5071769;28;20290;-69
2023/12/05 08:14:32;;;;;;;11.30;10.90;;;8.40;99.90;;;;;;5070844;28;20627;-68
2023/12/05 08:16:58;;;;;;;11.40;11.00;;;8.40;99.90;;;;;;5071222;28;20242;-69
2023/12/05 08:19:26;;;;;;;11.10;10.70;;;8.40;99.90;;;;;;5071361;28;20227;-71
2023/12/05 08:21:52;;;;;;;11.70;11.30;;;8.40;99.90;;;;;;5070900;28;20292;-69
2023/12/05 08:24:19;;;;;;;11.10;10.70;;;8.50;99.90;;;;;;5072736;28;20214;-70
2023/12/05 08:26:47;;;;;;;11.63;11.23;;;8.70;99.90;;;;;;5077233;28;20238;-69
2023/12/05 08:29:14;;;;;;;11.33;10.93;;;8.80;99.90;;;;;;5076742;28;20230;-66
2023/12/05 08:31:40;;;;;;;11.20;10.80;;;8.80;99.90;;;;;;5077159;28;20215;-68
2023/12/05 08:34:07;;;;;;;11.47;11.07;;;8.90;99.90;;;;;;5076053;28;20214;-69
2023/12/05 08:36:34;;;;;;;11.83;11.43;;;9.00;99.90;;;;;;5075592;28;20579;-68
2023/12/05 08:39:01;;;;;;;12.60;12.10;;;9.00;99.90;;;;;;5074160;28;20211;-70
2023/12/05 08:41:28;;;;;;;11.97;11.57;;;9.00;99.90;;;;;;5078811;28;20207;-68
2023/12/05 08:43:56;;;;;;;12.03;11.57;;;9.10;99.90;;;;;;5078085;28;20681;-68
2023/12/05 08:46:23;;;;;;;11.93;11.53;;;9.30;99.90;;;;;;5076432;28;20227;-68
2023/12/05 08:48:49;;;;;;;11.10;10.70;;;9.40;99.90;;;;;;5074521;28;20215;-66
2023/12/05 08:51:18;;;;;;;11.20;10.80;;;9.30;99.90;;;;;;5072575;28;20200;-69
2023/12/05 08:53:45;;;;;;;11.40;11.00;;;9.30;99.90;;;;;;5073453;28;20284;-70
2023/12/05 08:56:12;;;;;;;11.67;11.27;;;9.40;99.90;;;;;;5075199;28;20234;-69
2023/12/05 08:58:39;;;;;;;11.50;11.10;;;9.50;99.90;;;;;;5075511;28;20203;-69
2023/12/05 09:01:10;;;;;;;10.97;10.57;;;9.50;99.90;;;;;;5082541;28;20228;-71
2023/12/05 09:03:37;;;;;;;11.10;10.70;;;9.60;99.90;;;;;;5074455;28;20218;-68
2023/12/05 09:06:04;;;;;;;11.50;11.10;;;9.50;99.90;;;;;;5074151;28;20235;-69
2023/12/05 09:08:31;;;;;;;11.57;11.17;;;9.50;99.90;;;;;;5074131;28;20241;-69
2023/12/05 09:10:58;;;;;;;11.30;10.90;;;9.60;99.90;;;;;;5074299;28;20234;-70
2023/12/05 09:13:25;;;;;;;11.27;10.87;;;9.60;99.90;;;;;;5074323;28;20215;-68
2023/12/05 09:15:52;;;;;;;11.90;11.40;;;9.50;99.90;;;;;;5074297;28;20234;-69
2023/12/05 09:18:20;;;;;;;11.70;11.30;;;9.40;99.90;;;;;;5074249;28;20207;-70
2023/12/05 09:20:46;;;;;;;11.20;10.80;;;9.50;99.90;;;;;;5074163;28;20231;-69
2023/12/05 09:23:13;;;;;;;11.30;10.90;;;9.60;99.90;;;;;;5076187;28;20207;-69
2023/12/05 09:25:40;;;;;;;11.37;10.97;;;9.70;99.90;;;;;;5077970;28;20234;-70
2023/12/05 09:28:07;;;;;;;10.93;10.53;;;9.70;99.90;;;;;;5078727;28;20218;-69
2023/12/05 09:30:33;;;;;;;11.70;11.30;;;9.70;99.90;;;;;;5077667;28;20218;-68
2023/12/05 09:33:01;;;;;;;12.13;11.73;;;9.70;99.90;;;;;;5077514;28;20211;-70
2023/12/05 09:35:29;;;;;;;10.80;10.40;;;9.70;99.90;;;;;;5075711;28;20230;-69
2023/12/05 09:37:56;;;;;;;11.37;10.97;;;9.70;99.90;;;;;;5075363;28;20214;-70
2023/12/05 09:40:23;;;;;;;11.30;10.90;;;9.80;99.90;;;;;;5076464;28;20259;-70
2023/12/05 09:42:53;;;;;;;11.80;11.40;;;9.70;99.90;;;;;;5079351;28;20692;-70
2023/12/05 09:45:20;;;;;;;12.10;11.70;;;9.70;99.90;;;;;;5075007;28;20233;-70
2023/12/05 09:47:48;;;;;;;11.50;11.10;;;9.60;99.90;;;;;;5074256;28;20298;-69
2023/12/05 09:50:14;;;;;;;11.73;11.33;;;9.60;99.90;;;;;;5073731;28;20720;-69
2023/12/05 09:52:44;;;;;;;11.50;11.10;;;9.60;99.90;;;;;;5073709;28;20693;-68
2023/12/05 09:55:11;;;;;;;11.70;11.20;;;9.70;99.90;;;;;;5073887;28;20207;-69
2023/12/05 09:57:39;;;;;;;11.60;11.20;;;9.90;99.90;;;;;;5073666;28;20218;-67
2023/12/05 10:00:07;;;;;;;11.60;11.20;;;9.80;99.90;;;;;;5073423;28;20234;-69
2023/12/05 10:02:36;;;;;;;11.20;10.80;;;9.80;99.90;;;;;;5073658;28;20235;-69
2023/12/05 10:05:06;;;;;;;11.33;10.93;;;9.80;99.90;;;;;;5073960;28;20306;-70
2023/12/05 10:07:33;;;;;;;10.97;10.57;;;9.80;99.90;;;;;;5074999;28;20211;-68
2023/12/05 10:10:03;;;;;;;11.30;10.90;;;9.80;99.90;;;;;;5074028;28;20202;-67
2023/12/05 10:12:31;;;;;;;10.87;10.47;;;9.90;99.90;;;;;;5073306;28;20700;-67
2023/12/05 10:14:58;;;;;;;10.80;10.40;;;10.00;99.90;;;;;;5074292;28;20584;-70
2023/12/05 10:17:26;;;;;;;11.30;10.90;;;10.00;99.90;;;;;;5073300;28;20219;-68
2023/12/05 10:19:53;;;;;;;11.33;10.93;;;10.10;99.90;;;;;;5072682;28;20735;-69
2023/12/05 10:22:20;;;;;;;11.53;11.03;;;10.20;99.90;;;;;;5073118;28;20210;-68
2023/12/05 10:24:48;;;;;;;11.37;10.97;;;10.30;99.90;;;;;;5073242;28;20561;-68
2023/12/05 10:27:16;;;;;;;10.70;10.30;;;10.40;99.90;;;;;;5072941;28;20337;-67
2023/12/05 10:29:44;;;;;;;10.87;10.47;;;10.60;99.90;;;;;;5074471;28;20203;-69
2023/12/05 10:32:12;;;;;;;10.70;10.30;;;10.70;99.90;;;;;;5075447;28;20298;-69
2023/12/05 10:34:47;;;;;;;11.13;10.73;;;10.80;99.90;;;;;;5083822;28;20697;-68
2023/12/05 10:37:14;;;;;;;10.90;10.50;;;10.90;99.90;;;;;;5074116;28;20284;-71
2023/12/05 10:39:41;;;;;;;11.50;11.10;;;11.00;99.90;;;;;;5073731;28;20211;-69
2023/12/05 10:42:09;;;;;;;10.90;10.50;;;11.00;99.90;;;;;;5072959;28;20207;-69
2023/12/05 10:44:40;;;;;;;11.03;10.63;;;10.80;99.90;;;;;;5075662;28;20218;-69
2023/12/05 10:47:07;;;;;;;11.50;11.03;;;10.70;99.90;;;;;;5073144;28;20234;-69
2023/12/05 10:49:35;;;;;;;11.00;10.60;;;10.60;99.90;;;;;;5079985;28;20586;-70
2023/12/05 10:52:03;;;;;;;11.53;11.13;;;10.70;99.90;;;;;;5074140;28;20225;-68
2023/12/05 10:54:30;;;;;;;10.80;10.40;;;10.80;99.90;;;;;;5073177;28;20207;-69
2023/12/05 10:56:57;;;;;;;11.10;10.70;;;10.90;99.90;;;;;;5072899;28;20587;-69
2023/12/05 10:59:25;;;;;;;11.27;10.87;;;10.90;99.90;;;;;;5073063;28;20666;-70
2023/12/05 11:01:55;;;;;;;12.17;11.57;;;10.90;99.90;;;;;;5073741;28;20301;-69
2023/12/05 11:04:22;;;;;;;11.33;10.93;;;10.80;99.90;;;;;;5073809;28;20215;-68
2023/12/05 11:06:49;;;;;;;10.97;10.57;;;10.80;99.90;;;;;;5073108;28;20238;-70
2023/12/05 11:09:16;;;;;;;11.27;10.87;;;10.80;99.90;;;;;;5065024;28;20460;-70
2023/12/05 11:11:46;;;;;;;11.07;10.67;;;10.70;99.90;;;;;;5073427;28;20265;-70
2023/12/05 11:14:15;;;;;;;11.13;10.73;;;10.70;99.90;;;;;;5072747;28;20230;-69
2023/12/05 11:16:48;;;;;;;11.40;11.00;;;10.80;99.90;;;;;;5072506;28;20760;-67
2023/12/05 11:19:29;;;;;;;11.00;10.60;;;10.60;99.90;;;;;;5071930;28;20211;-69
2023/12/05 11:22:04;;;;;;;11.03;10.63;;;10.60;99.90;;;;;;5072588;28;20234;-69
2023/12/05 11:25:14;;;;;;;10.90;10.50;;;10.60;99.90;;;;;;5072118;28;20673;-69
2023/12/05 11:27:53;;;;;;;10.80;10.40;;;10.60;99.90;;;;;;5066668;28;20211;-68
2023/12/05 11:30:47;;;;;;;10.70;10.30;;;10.50;99.90;;;;;;5074887;28;20214;-68
2023/12/05 11:33:26;;;;;;;10.83;10.43;;;10.50;99.90;;;;;;5072536;28;20214;-68
2023/12/05 11:36:04;;;;;;;10.40;10.00;;;10.40;99.90;;;;;;5072234;28;20253;-69
2023/12/05 11:38:31;;;;;;;11.50;11.10;;;10.30;99.90;;;;;;5071960;28;20685;-69
2023/12/05 11:41:11;;;;;;;11.00;10.60;;;10.30;99.90;;;;;;5074950;28;20231;-68
2023/12/05 11:43:39;;;;;;;11.17;10.77;;;10.30;99.90;;;;;;5076235;28;20209;-68
2023/12/05 11:46:06;;;;;;;10.93;10.53;;;10.20;99.90;;;;;;5072398;28;20227;-68
2023/12/05 11:48:33;;;;;;;11.03;10.63;;;10.20;99.90;;;;;;5071603;28;20303;-70
2023/12/05 11:51:02;;;;;;;11.40;11.00;;;10.20;99.90;;;;;;5071952;28;20243;-71
2023/12/05 11:53:30;;;;;;;11.90;11.50;;;10.10;99.90;;;;;;5071308;28;20242;-70
2023/12/05 11:55:58;;;;;;;12.43;11.93;;;10.10;99.90;;;;;;5071683;28;20223;-70
2023/12/05 11:58:31;;;;;;;12.27;11.80;;;10.10;99.90;;;;;;5071003;28;20211;-69
2023/12/05 12:01:03;;;;;;;11.13;10.73;;;10.20;99.90;;;;;;5071332;28;20274;-69
2023/12/05 12:03:43;;;;;;;11.63;11.23;;;10.10;99.90;;;;;;5071894;28;20256;-72
2023/12/05 12:06:11;;;;;;;11.13;10.73;;;10.10;99.90;;;;;;5071401;28;20239;-70
2023/12/05 12:08:38;;;;;;;12.57;12.07;;;10.10;99.90;;;;;;5071922;28;20203;-69
2023/12/05 12:11:05;;;;;;;11.40;11.00;;;10.10;99.90;;;;;;5071504;28;20206;-68
2023/12/05 12:13:32;;;;;;;11.47;11.00;;;10.00;99.90;;;;;;5072091;28;20210;-71
2023/12/05 12:15:59;;;;;;;12.93;12.43;;;10.00;99.90;;;;;;5071557;28;20237;-69
2023/12/05 12:18:26;;;;;;;12.07;11.67;;;10.00;99.90;;;;;;5071772;28;20732;-71
2023/12/05 12:20:53;;;;;;;11.23;10.83;;;10.00;99.90;;;;;;5072030;28;20263;-68
2023/12/05 12:23:21;;;;;;;12.13;11.73;;;9.90;99.90;;;;;;5071779;28;20211;-70
2023/12/05 12:25:53;;;;;;;12.37;11.87;;;9.90;99.90;;;;;;5071657;28;20232;-69
2023/12/05 12:28:30;;;;;;;12.23;11.67;;;9.90;99.90;;;;;;5064299;28;20207;-68
2023/12/05 12:30:58;;;;;;;11.80;11.30;;;9.90;99.90;;;;;;5074453;28;20214;-69
2023/12/05 12:33:35;;;;;;;11.83;11.40;;;9.90;99.90;;;;;;5075678;28;20261;-71
2023/12/05 12:36:03;;;;;;;12.00;11.60;;;9.80;99.90;;;;;;5075139;28;20229;-71
2023/12/05 12:38:33;;;;;;;11.87;11.37;;;9.80;99.90;;;;;;5075391;28;20616;-70
2023/12/05 12:41:00;;;;;;;12.60;12.10;;;9.80;99.90;;;;;;5075348;28;20230;-71